sensor_id;sensor_type;location;lat;lon;timestamp;temperature;humidity
8711;DHT22;4392;47.400;8.062;2023-12-04T01:38:42;3.10;96.20
8711;DHT22;4392;47.400;8.062;2023-12-04T01:41:10;2.70;95.40
8711;DHT22;4392;47.400;8.062;2023-12-04T01:43:35;2.50;95.20
8711;DHT22;4392;47.400;8.062;2023-12-04T01:46:01;2.40;95.30
8711;DHT22;4392;47.400;8.062;2023-12-04T01:48:28;2.40;95.50
8711;DHT22;4392;47.400;8.062;2023-12-04T01:50:54;2.40;95.70
8711;DHT22;4392;47.400;8.062;2023-12-04T01:53:20;2.40;96.40
8711;DHT22;4392;47.400;8.062;2023-12-04T01:55:46;2.40;95.60
8711;DHT22;4392;47.400;8.062;2023-12-04T01:58:12;2.40;95.10
8711;DHT22;4392;47.400;8.062;2023-12-04T02:00:38;2.40;95.10
8711;DHT22;4392;47.400;8.062;2023-12-04T02:03:04;2.40;94.90
8711;DHT22;4392;47.400;8.062;2023-12-04T02:05:31;2.40;95.20
8711;DHT22;4392;47.400;8.062;2023-12-04T02:07:57;5.50;99.90
8711;DHT22;4392;47.400;8.062;2023-12-04T02:10:23;4.30;99.40
8711;DHT22;4392;47.400;8.062;2023-12-04T02:12:50;3.20;94.50
8711;DHT22;4392;47.400;8.062;2023-12-04T02:15:15;2.50;94.80
8711;DHT22;4392;47.400;8.062;2023-12-04T02:17:43;2.00;96.60
8711;DHT22;4392;47.400;8.062;2023-12-04T02:20:09;2.00;96.50
8711;DHT22;4392;47.400;8.062;2023-12-04T02:22:34;2.00;96.20
8711;DHT22;4392;47.400;8.062;2023-12-04T02:25:00;2.10;95.90
8711;DHT22;4392;47.400;8.062;2023-12-04T02:27:34;2.00;98.20
8711;DHT22;4392;47.400;8.062;2023-12-04T02:30:05;4.80;99.90
8711;DHT22;4392;47.400;8.062;2023-12-04T02:32:37;3.60;94.80
8711;DHT22;4392;47.400;8.062;2023-12-04T02:35:05;3.00;94.40
8711;DHT22;4392;47.400;8.062;2023-12-04T02:37:32;2.50;94.30
8711;DHT22;4392;47.400;8.062;2023-12-04T02:39:58;5.70;99.90
8711;DHT22;4392;47.400;8.062;2023-12-04T02:42:24;5.90;93.80
8711;DHT22;4392;47.400;8.062;2023-12-04T02:44:51;4.40;90.30
8711;DHT22;4392;47.400;8.062;2023-12-04T02:47:17;3.50;90.50
8711;DHT22;4392;47.400;8.062;2023-12-04T02:49:43;3.00;91.40
8711;DHT22;4392;47.400;8.062;2023-12-04T02:52:08;2.70;91.90
8711;DHT22;4392;47.400;8.062;2023-12-04T02:54:34;2.50;92.30
8711;DHT22;4392;47.400;8.062;2023-12-04T02:56:59;2.40;92.40
8711;DHT22;4392;47.400;8.062;2023-12-04T02:59:25;2.20;92.30
8711;DHT22;4392;47.400;8.062;2023-12-04T03:01:51;2.50;99.90
8711;DHT22;4392;47.400;8.062;2023-12-04T03:04:16;6.00;99.90
8711;DHT22;4392;47.400;8.062;2023-12-04T03:06:42;4.80;91.20
8711;DHT22;4392;47.400;8.062;2023-12-04T03:09:08;3.50;91.30
8711;DHT22;4392;47.400;8.062;2023-12-04T03:11:33;2.80;91.60
8711;DHT22;4392;47.400;8.062;2023-12-04T03:14:00;2.40;92.20
8711;DHT22;4392;47.400;8.062;2023-12-04T03:16:27;2.30;92.60
8711;DHT22;4392;47.400;8.062;2023-12-04T03:18:53;2.10;92.90
8711;DHT22;4392;47.400;8.062;2023-12-04T03:21:19;2.00;92.90
8711;DHT22;4392;47.400;8.062;2023-12-04T03:23:44;1.90;93.10
8711;DHT22;4392;47.400;8.062;2023-12-04T03:26:10;1.90;93.30
8711;DHT22;4392;47.400;8.062;2023-12-04T03:28:35;1.90;93.50
8711;DHT22;4392;47.400;8.062;2023-12-04T03:31:02;1.90;93.40
8711;DHT22;4392;47.400;8.062;2023-12-04T03:33:27;1.90;93.10
8711;DHT22;4392;47.400;8.062;2023-12-04T03:35:53;1.70;92.70
8711;DHT22;4392;47.400;8.062;2023-12-04T03:38:21;1.60;92.70
8711;DHT22;4392;47.400;8.062;2023-12-04T03:40:46;1.50;92.90
8711;DHT22;4392;47.400;8.062;2023-12-04T03:43:12;1.60;93.40
8711;DHT22;4392;47.400;8.062;2023-12-04T03:45:37;1.70;93.70
8711;DHT22;4392;47.400;8.062;2023-12-04T03:48:03;1.70;94.00
8711;DHT22;4392;47.400;8.062;2023-12-04T03:50:31;1.80;94.30
8711;DHT22;4392;47.400;8.062;2023-12-04T03:52:57;1.50;94.60
8711;DHT22;4392;47.400;8.062;2023-12-04T03:55:22;1.50;94.60
8711;DHT22;4392;47.400;8.062;2023-12-04T03:57:51;1.50;94.60
8711;DHT22;4392;47.400;8.062;2023-12-04T04:00:17;1.60;94.90
8711;DHT22;4392;47.400;8.062;2023-12-04T04:02:43;5.10;99.90
8711;DHT22;4392;47.400;8.062;2023-12-04T04:05:09;4.30;99.90
8711;DHT22;4392;47.400;8.062;2023-12-04T04:07:35;6.30;99.90
8711;DHT22;4392;47.400;8.062;2023-12-04T04:10:01;5.30;92.60
8711;DHT22;4392;47.400;8.062;2023-12-04T04:12:27;5.40;99.90
8711;DHT22;4392;47.400;8.062;2023-12-04T04:14:53;6.20;96.00
8711;DHT22;4392;47.400;8.062;2023-12-04T04:17:18;4.60;89.60
8711;DHT22;4392;47.400;8.062;2023-12-04T04:19:44;3.60;90.50
8711;DHT22;4392;47.400;8.062;2023-12-04T04:22:10;2.90;90.70
8711;DHT22;4392;47.400;8.062;2023-12-04T04:24:36;2.50;91.40
8711;DHT22;4392;47.400;8.062;2023-12-04T04:27:01;2.40;91.90
8711;DHT22;4392;47.400;8.062;2023-12-04T04:29:27;2.30;92.10
8711;DHT22;4392;47.400;8.062;2023-12-04T04:31:53;2.10;92.40
8711;DHT22;4392;47.400;8.062;2023-12-04T04:34:20;2.00;92.30
8711;DHT22;4392;47.400;8.062;2023-12-04T04:36:46;2.00;92.20
8711;DHT22;4392;47.400;8.062;2023-12-04T04:39:13;1.90;92.00
8711;DHT22;4392;47.400;8.062;2023-12-04T04:41:39;1.80;92.00
8711;DHT22;4392;47.400;8.062;2023-12-04T04:44:05;1.80;91.80
8711;DHT22;4392;47.400;8.062;2023-12-04T04:46:31;1.70;91.60
8711;DHT22;4392;47.400;8.062;2023-12-04T04:48:56;1.60;91.30
8711;DHT22;4392;47.400;8.062;2023-12-04T04:51:22;1.40;91.50
8711;DHT22;4392;47.400;8.062;2023-12-04T04:53:50;1.40;91.70
8711;DHT22;4392;47.400;8.062;2023-12-04T04:56:16;1.40;91.40
8711;DHT22;4392;47.400;8.062;2023-12-04T04:58:42;1.30;91.50
8711;DHT22;4392;47.400;8.062;2023-12-04T05:01:08;1.40;91.10
8711;DHT22;4392;47.400;8.062;2023-12-04T05:03:34;1.40;90.90
8711;DHT22;4392;47.400;8.062;2023-12-04T05:05:59;1.30;90.90
8711;DHT22;4392;47.400;8.062;2023-12-04T05:08:25;1.30;90.90
8711;DHT22;4392;47.400;8.062;2023-12-04T05:10:51;1.30;91.10
8711;DHT22;4392;47.400;8.062;2023-12-04T05:13:18;1.30;91.10
8711;DHT22;4392;47.400;8.062;2023-12-04T05:15:43;1.60;99.90
8711;DHT22;4392;47.400;8.062;2023-12-04T05:18:09;4.60;99.90
8711;DHT22;4392;47.400;8.062;2023-12-04T05:20:35;3.30;95.80
8711;DHT22;4392;47.400;8.062;2023-12-04T05:23:00;2.50;93.80
8711;DHT22;4392;47.400;8.062;2023-12-04T05:25:26;2.10;93.60
8711;DHT22;4392;47.400;8.062;2023-12-04T05:27:54;1.90;93.40
8711;DHT22;4392;47.400;8.062;2023-12-04T05:30:20;1.80;93.50
8711;DHT22;4392;47.400;8.062;2023-12-04T05:32:45;1.70;93.50
8711;DHT22;4392;47.400;8.062;2023-12-04T05:35:11;1.70;92.90
8711;DHT22;4392;47.400;8.062;2023-12-04T05:37:36;1.70;92.90
8711;DHT22;4392;47.400;8.062;2023-12-04T05:40:02;1.70;93.00
8711;DHT22;4392;47.400;8.062;2023-12-04T05:42:32;1.60;92.90
8711;DHT22;4392;47.400;8.062;2023-12-04T05:44:58;4.40;99.90
8711;DHT22;4392;47.400;8.062;2023-12-04T05:47:23;4.60;98.90
8711;DHT22;4392;47.400;8.062;2023-12-04T05:49:49;3.30;92.60
8711;DHT22;4392;47.400;8.062;2023-12-04T05:52:14;2.50;92.30
8711;DHT22;4392;47.400;8.062;2023-12-04T05:54:40;2.10;92.30
8711;DHT22;4392;47.400;8.062;2023-12-04T05:57:05;1.80;92.40
8711;DHT22;4392;47.400;8.062;2023-12-04T05:59:31;1.70;93.30
8711;DHT22;4392;47.400;8.062;2023-12-04T06:01:57;5.40;99.90
8711;DHT22;4392;47.400;8.062;2023-12-04T06:04:24;4.30;92.80
8711;DHT22;4392;47.400;8.062;2023-12-04T06:06:50;3.30;91.00
8711;DHT22;4392;47.400;8.062;2023-12-04T06:09:16;2.60;91.40
8711;DHT22;4392;47.400;8.062;2023-12-04T06:11:42;2.30;91.60
8711;DHT22;4392;47.400;8.062;2023-12-04T06:14:07;2.20;92.00
8711;DHT22;4392;47.400;8.062;2023-12-04T06:16:33;2.10;92.00
8711;DHT22;4392;47.400;8.062;2023-12-04T06:18:59;2.10;92.40
8711;DHT22;4392;47.400;8.062;2023-12-04T06:21:24;2.00;92.20
8711;DHT22;4392;47.400;8.062;2023-12-04T06:23:50;2.80;99.90
8711;DHT22;4392;47.400;8.062;2023-12-04T06:26:16;6.10;99.90
8711;DHT22;4392;47.400;8.062;2023-12-04T06:28:43;4.90;86.20
8711;DHT22;4392;47.400;8.062;2023-12-04T06:31:09;3.50;87.90
8711;DHT22;4392;47.400;8.062;2023-12-04T06:33:35;2.80;90.50
8711;DHT22;4392;47.400;8.062;2023-12-04T06:36:02;2.50;90.90
8711;DHT22;4392;47.400;8.062;2023-12-04T06:38:31;2.30;91.50
8711;DHT22;4392;47.400;8.062;2023-12-04T06:40:57;2.20;91.40
8711;DHT22;4392;47.400;8.062;2023-12-04T06:43:23;2.10;91.70
8711;DHT22;4392;47.400;8.062;2023-12-04T06:45:49;1.90;91.80
8711;DHT22;4392;47.400;8.062;2023-12-04T06:48:15;1.90;91.60
8711;DHT22;4392;47.400;8.062;2023-12-04T06:50:41;1.80;92.00
8711;DHT22;4392;47.400;8.062;2023-12-04T06:53:07;1.80;91.80
8711;DHT22;4392;47.400;8.062;2023-12-04T06:55:32;1.60;92.10
8711;DHT22;4392;47.400;8.062;2023-12-04T06:57:58;1.70;93.20
8711;DHT22;4392;47.400;8.062;2023-12-04T07:00:23;1.50;92.90
8711;DHT22;4392;47.400;8.062;2023-12-04T07:02:49;0.80;94.20
8711;DHT22;4392;47.400;8.062;2023-12-04T07:05:15;1.10;94.00
8711;DHT22;4392;47.400;8.062;2023-12-04T07:07:41;1.50;93.90
8711;DHT22;4392;47.400;8.062;2023-12-04T07:10:07;1.70;93.40
8711;DHT22;4392;47.400;8.062;2023-12-04T07:12:44;1.70;93.50
8711;DHT22;4392;47.400;8.062;2023-12-04T07:15:11;1.80;95.20
8711;DHT22;4392;47.400;8.062;2023-12-04T07:17:39;1.90;94.50
8711;DHT22;4392;47.400;8.062;2023-12-04T07:20:05;2.00;93.90
8711;DHT22;4392;47.400;8.062;2023-12-04T07:22:34;2.00;93.30
8711;DHT22;4392;47.400;8.062;2023-12-04T07:25:00;1.90;93.00
8711;DHT22;4392;47.400;8.062;2023-12-04T07:27:28;4.40;99.90
8711;DHT22;4392;47.400;8.062;2023-12-04T07:29:53;5.90;99.90
8711;DHT22;4392;47.400;8.062;2023-12-04T07:32:19;4.60;95.00
8711;DHT22;4392;47.400;8.062;2023-12-04T07:34:45;3.70;92.40
8711;DHT22;4392;47.400;8.062;2023-12-04T07:37:10;3.00;91.80
8711;DHT22;4392;47.400;8.062;2023-12-04T07:39:36;2.60;92.40
8711;DHT22;4392;47.400;8.062;2023-12-04T07:42:02;2.30;92.80
8711;DHT22;4392;47.400;8.062;2023-12-04T07:44:27;2.10;93.20
8711;DHT22;4392;47.400;8.062;2023-12-04T07:46:53;1.60;94.00
8711;DHT22;4392;47.400;8.062;2023-12-04T07:49:19;1.50;94.80
8711;DHT22;4392;47.400;8.062;2023-12-04T07:51:44;1.70;94.80
8711;DHT22;4392;47.400;8.062;2023-12-04T07:54:10;1.70;94.80
8711;DHT22;4392;47.400;8.062;2023-12-04T07:56:36;1.60;94.60
8711;DHT22;4392;47.400;8.062;2023-12-04T07:59:01;1.70;94.80
8711;DHT22;4392;47.400;8.062;2023-12-04T08:01:27;1.60;94.80
8711;DHT22;4392;47.400;8.062;2023-12-04T08:03:52;1.60;96.70
8711;DHT22;4392;47.400;8.062;2023-12-04T08:06:18;2.00;98.40
8711;DHT22;4392;47.400;8.062;2023-12-04T08:08:44;2.10;96.40
8711;DHT22;4392;47.400;8.062;2023-12-04T08:11:11;2.00;95.50
8711;DHT22;4392;47.400;8.062;2023-12-04T08:13:38;1.90;95.30
8711;DHT22;4392;47.400;8.062;2023-12-04T08:16:04;1.80;95.10
8711;DHT22;4392;47.400;8.062;2023-12-04T08:18:30;1.80;94.80
8711;DHT22;4392;47.400;8.062;2023-12-04T08:20:56;1.70;95.00
8711;DHT22;4392;47.400;8.062;2023-12-04T08:23:24;1.70;97.40
8711;DHT22;4392;47.400;8.062;2023-12-04T08:25:49;5.20;99.90
8711;DHT22;4392;47.400;8.062;2023-12-04T08:28:15;3.90;93.50
8711;DHT22;4392;47.400;8.062;2023-12-04T08:30:41;3.00;92.90
8711;DHT22;4392;47.400;8.062;2023-12-04T08:33:06;2.40;94.30
8711;DHT22;4392;47.400;8.062;2023-12-04T08:35:32;1.90;95.90
8711;DHT22;4392;47.400;8.062;2023-12-04T08:38:03;1.90;95.90
8711;DHT22;4392;47.400;8.062;2023-12-04T08:40:28;1.90;95.50
8711;DHT22;4392;47.400;8.062;2023-12-04T08:42:54;1.80;95.90
8711;DHT22;4392;47.400;8.062;2023-12-04T08:45:20;1.80;99.90
8711;DHT22;4392;47.400;8.062;2023-12-04T08:47:45;1.80;99.20
8711;DHT22;4392;47.400;8.062;2023-12-04T08:50:11;1.70;97.60
8711;DHT22;4392;47.400;8.062;2023-12-04T08:52:37;1.80;97.80
8711;DHT22;4392;47.400;8.062;2023-12-04T08:55:05;5.00;99.90
8711;DHT22;4392;47.400;8.062;2023-12-04T08:57:31;7.00;99.90
8711;DHT22;4392;47.400;8.062;2023-12-04T09:00:02;5.90;89.40
8711;DHT22;4392;47.400;8.062;2023-12-04T09:02:29;4.50;90.20
8711;DHT22;4392;47.400;8.062;2023-12-04T09:04:56;3.60;91.10
8711;DHT22;4392;47.400;8.062;2023-12-04T09:07:21;3.10;91.50
8711;DHT22;4392;47.400;8.062;2023-12-04T09:09:47;2.80;91.60
8711;DHT22;4392;47.400;8.062;2023-12-04T09:12:15;2.70;92.10
8711;DHT22;4392;47.400;8.062;2023-12-04T09:14:41;2.60;92.30
8711;DHT22;4392;47.400;8.062;2023-12-04T09:17:06;2.50;92.50
8711;DHT22;4392;47.400;8.062;2023-12-04T09:19:33;2.50;93.10
8711;DHT22;4392;47.400;8.062;2023-12-04T09:21:58;2.50;93.50
8711;DHT22;4392;47.400;8.062;2023-12-04T09:24:24;2.40;93.60
8711;DHT22;4392;47.400;8.062;2023-12-04T09:26:50;2.30;93.90
8711;DHT22;4392;47.400;8.062;2023-12-04T09:29:15;2.90;99.90
8711;DHT22;4392;47.400;8.062;2023-12-04T09:31:42;5.90;99.90
8711;DHT22;4392;47.400;8.062;2023-12-04T09:34:08;4.80;92.60
8711;DHT22;4392;47.400;8.062;2023-12-04T09:36:34;3.80;93.00
8711;DHT22;4392;47.400;8.062;2023-12-04T09:39:00;3.30;94.00
8711;DHT22;4392;47.400;8.062;2023-12-04T09:41:26;3.00;94.30
8711;DHT22;4392;47.400;8.062;2023-12-04T09:43:52;2.80;94.50
8711;DHT22;4392;47.400;8.062;2023-12-04T09:46:18;2.70;94.50
8711;DHT22;4392;47.400;8.062;2023-12-04T09:48:47;2.70;94.70
8711;DHT22;4392;47.400;8.062;2023-12-04T09:51:12;2.60;94.70
8711;DHT22;4392;47.400;8.062;2023-12-04T09:53:40;2.50;94.60
8711;DHT22;4392;47.400;8.062;2023-12-04T09:56:07;2.70;99.10
8711;DHT22;4392;47.400;8.062;2023-12-04T09:58:36;2.70;95.40
8711;DHT22;4392;47.400;8.062;2023-12-04T10:01:05;2.60;94.40
8711;DHT22;4392;47.400;8.062;2023-12-04T10:03:32;2.40;93.90
8711;DHT22;4392;47.400;8.062;2023-12-04T10:05:58;2.30;93.70
8711;DHT22;4392;47.400;8.062;2023-12-04T10:08:24;2.10;94.40
8711;DHT22;4392;47.400;8.062;2023-12-04T10:10:50;4.50;99.90
8711;DHT22;4392;47.400;8.062;2023-12-04T10:13:16;6.90;99.90
8711;DHT22;4392;47.400;8.062;2023-12-04T10:15:48;5.40;90.80
8711;DHT22;4392;47.400;8.062;2023-12-04T10:18:31;4.30;96.90
8711;DHT22;4392;47.400;8.062;2023-12-04T10:20:58;6.60;99.90
8711;DHT22;4392;47.400;8.062;2023-12-04T10:26:02;6.80;86.40
8711;DHT22;4392;47.400;8.062;2023-12-04T10:28:28;5.50;87.50
8711;DHT22;4392;47.400;8.062;2023-12-04T10:30:55;4.60;88.80
8711;DHT22;4392;47.400;8.062;2023-12-04T10:33:21;4.00;90.10
8711;DHT22;4392;47.400;8.062;2023-12-04T10:35:51;3.70;90.50
8711;DHT22;4392;47.400;8.062;2023-12-04T10:38:18;3.40;91.10
8711;DHT22;4392;47.400;8.062;2023-12-04T10:40:44;3.30;92.90
8711;DHT22;4392;47.400;8.062;2023-12-04T10:43:23;3.50;92.80
8711;DHT22;4392;47.400;8.062;2023-12-04T10:45:50;4.60;99.90
8711;DHT22;4392;47.400;8.062;2023-12-04T10:48:18;7.20;99.90
8711;DHT22;4392;47.400;8.062;2023-12-04T10:50:48;8.10;98.80
8711;DHT22;4392;47.400;8.062;2023-12-04T10:53:16;7.20;82.40
8711;DHT22;4392;47.400;8.062;2023-12-04T10:55:42;5.70;85.30
8711;DHT22;4392;47.400;8.062;2023-12-04T10:58:13;4.80;87.70
8711;DHT22;4392;47.400;8.062;2023-12-04T11:00:45;4.20;89.20
8711;DHT22;4392;47.400;8.062;2023-12-04T11:03:24;3.80;90.20
8711;DHT22;4392;47.400;8.062;2023-12-04T11:06:00;3.60;91.10
8711;DHT22;4392;47.400;8.062;2023-12-04T11:08:29;3.40;91.20
8711;DHT22;4392;47.400;8.062;2023-12-04T11:11:05;3.30;91.20
8711;DHT22;4392;47.400;8.062;2023-12-04T11:13:37;3.20;91.20
8711;DHT22;4392;47.400;8.062;2023-12-04T11:16:23;3.10;91.30
8711;DHT22;4392;47.400;8.062;2023-12-04T11:19:11;3.00;91.10
8711;DHT22;4392;47.400;8.062;2023-12-04T11:21:39;3.20;96.30
8711;DHT22;4392;47.400;8.062;2023-12-04T11:24:06;3.40;92.60
8711;DHT22;4392;47.400;8.062;2023-12-04T11:26:33;3.50;92.60
8711;DHT22;4392;47.400;8.062;2023-12-04T11:29:00;3.50;91.90
8711;DHT22;4392;47.400;8.062;2023-12-04T11:31:26;3.40;91.80
8711;DHT22;4392;47.400;8.062;2023-12-04T11:33:52;3.30;91.10
8711;DHT22;4392;47.400;8.062;2023-12-04T11:36:18;3.10;91.30
8711;DHT22;4392;47.400;8.062;2023-12-04T11:38:48;3.00;91.70
8711;DHT22;4392;47.400;8.062;2023-12-04T11:41:24;2.90;92.00
8711;DHT22;4392;47.400;8.062;2023-12-04T11:43:51;2.90;92.40
8711;DHT22;4392;47.400;8.062;2023-12-04T11:46:23;2.90;92.50
8711;DHT22;4392;47.400;8.062;2023-12-04T11:48:50;2.90;92.90
8711;DHT22;4392;47.400;8.062;2023-12-04T11:54:07;2.70;93.50
8711;DHT22;4392;47.400;8.062;2023-12-04T11:56:33;2.80;93.80
8711;DHT22;4392;47.400;8.062;2023-12-04T11:59:06;2.80;94.00
8711;DHT22;4392;47.400;8.062;2023-12-04T12:01:38;2.70;94.10
8711;DHT22;4392;47.400;8.062;2023-12-04T12:04:08;6.00;99.90
8711;DHT22;4392;47.400;8.062;2023-12-04T12:06:35;7.40;99.90
8711;DHT22;4392;47.400;8.062;2023-12-04T12:09:01;5.90;91.30
8711;DHT22;4392;47.400;8.062;2023-12-04T12:11:27;4.80;92.00
8711;DHT22;4392;47.400;8.062;2023-12-04T12:13:55;4.10;94.60
8711;DHT22;4392;47.400;8.062;2023-12-04T12:16:23;3.80;95.30
8711;DHT22;4392;47.400;8.062;2023-12-04T12:18:49;3.70;95.50
8711;DHT22;4392;47.400;8.062;2023-12-04T12:21:14;3.70;94.80
8711;DHT22;4392;47.400;8.062;2023-12-04T12:23:40;3.60;94.70
8711;DHT22;4392;47.400;8.062;2023-12-04T12:26:06;3.50;94.50
8711;DHT22;4392;47.400;8.062;2023-12-04T12:28:32;3.30;94.30
8711;DHT22;4392;47.400;8.062;2023-12-04T12:31:03;2.70;95.60
8711;DHT22;4392;47.400;8.062;2023-12-04T12:33:29;2.60;96.60
8711;DHT22;4392;47.400;8.062;2023-12-04T12:36:00;2.60;97.20
8711;DHT22;4392;47.400;8.062;2023-12-04T12:38:30;2.90;96.60
8711;DHT22;4392;47.400;8.062;2023-12-04T12:41:00;3.00;96.20
8711;DHT22;4392;47.400;8.062;2023-12-04T12:43:27;3.10;96.20
8711;DHT22;4392;47.400;8.062;2023-12-04T12:45:53;2.90;95.90
8711;DHT22;4392;47.400;8.062;2023-12-04T12:48:19;2.80;95.80
8711;DHT22;4392;47.400;8.062;2023-12-04T12:50:46;2.70;96.10
8711;DHT22;4392;47.400;8.062;2023-12-04T12:53:13;2.70;96.00
8711;DHT22;4392;47.400;8.062;2023-12-04T12:55:42;2.70;96.00
8711;DHT22;4392;47.400;8.062;2023-12-04T12:58:11;2.80;96.00
8711;DHT22;4392;47.400;8.062;2023-12-04T13:00:42;2.80;96.30
8711;DHT22;4392;47.400;8.062;2023-12-04T13:03:17;2.80;95.60
8711;DHT22;4392;47.400;8.062;2023-12-04T13:05:44;2.60;96.30
8711;DHT22;4392;47.400;8.062;2023-12-04T13:08:09;2.70;96.50
8711;DHT22;4392;47.400;8.062;2023-12-04T13:10:40;2.70;96.40
8711;DHT22;4392;47.400;8.062;2023-12-04T13:13:15;2.70;96.40
8711;DHT22;4392;47.400;8.062;2023-12-04T13:15:41;4.90;99.90
8711;DHT22;4392;47.400;8.062;2023-12-04T13:18:07;5.80;99.90
8711;DHT22;4392;47.400;8.062;2023-12-04T13:20:33;4.70;95.20
8711;DHT22;4392;47.400;8.062;2023-12-04T13:23:00;4.10;95.40
8711;DHT22;4392;47.400;8.062;2023-12-04T13:25:25;3.80;95.70
8711;DHT22;4392;47.400;8.062;2023-12-04T13:27:51;3.60;96.00
8711;DHT22;4392;47.400;8.062;2023-12-04T13:30:17;3.40;97.70
8711;DHT22;4392;47.400;8.062;2023-12-04T13:32:43;6.50;99.90
8711;DHT22;4392;47.400;8.062;2023-12-04T13:35:08;6.60;95.20
8711;DHT22;4392;47.400;8.062;2023-12-04T13:37:35;5.20;92.40
8711;DHT22;4392;47.400;8.062;2023-12-04T13:40:02;4.40;92.90
8711;DHT22;4392;47.400;8.062;2023-12-04T13:42:38;3.90;93.60
8711;DHT22;4392;47.400;8.062;2023-12-04T13:45:22;3.60;94.10
8711;DHT22;4392;47.400;8.062;2023-12-04T13:47:49;3.40;94.50
8711;DHT22;4392;47.400;8.062;2023-12-04T13:50:14;3.40;94.80
8711;DHT22;4392;47.400;8.062;2023-12-04T13:52:40;3.50;98.20
8711;DHT22;4392;47.400;8.062;2023-12-04T13:55:08;3.80;99.90
8711;DHT22;4392;47.400;8.062;2023-12-04T13:57:45;3.90;99.40
8711;DHT22;4392;47.400;8.062;2023-12-04T14:00:25;3.80;97.00
8711;DHT22;4392;47.400;8.062;2023-12-04T14:02:51;3.60;96.60
8711;DHT22;4392;47.400;8.062;2023-12-04T14:05:29;3.40;96.50
8711;DHT22;4392;47.400;8.062;2023-12-04T14:07:55;3.30;96.70
8711;DHT22;4392;47.400;8.062;2023-12-04T14:10:22;3.20;97.10
8711;DHT22;4392;47.400;8.062;2023-12-04T14:12:47;3.10;97.30
8711;DHT22;4392;47.400;8.062;2023-12-04T14:15:13;3.20;97.50
8711;DHT22;4392;47.400;8.062;2023-12-04T14:17:40;3.10;97.60
8711;DHT22;4392;47.400;8.062;2023-12-04T14:20:06;3.10;97.60
8711;DHT22;4392;47.400;8.062;2023-12-04T14:22:42;3.10;97.60
8711;DHT22;4392;47.400;8.062;2023-12-04T14:25:08;3.20;97.90
8711;DHT22;4392;47.400;8.062;2023-12-04T14:27:36;3.10;97.80
8711;DHT22;4392;47.400;8.062;2023-12-04T14:30:07;3.10;97.80
8711;DHT22;4392;47.400;8.062;2023-12-04T14:32:34;3.00;97.90
8711;DHT22;4392;47.400;8.062;2023-12-04T14:35:00;3.00;97.90
8711;DHT22;4392;47.400;8.062;2023-12-04T14:37:26;2.90;98.10
8711;DHT22;4392;47.400;8.062;2023-12-04T14:39:52;2.90;97.60
8711;DHT22;4392;47.400;8.062;2023-12-04T14:42:17;2.90;97.60
8711;DHT22;4392;47.400;8.062;2023-12-04T14:44:43;2.80;97.70
8711;DHT22;4392;47.400;8.062;2023-12-04T14:47:08;2.80;98.00
8711;DHT22;4392;47.400;8.062;2023-12-04T14:49:37;2.70;98.30
8711;DHT22;4392;47.400;8.062;2023-12-04T14:52:03;2.70;98.60
8711;DHT22;4392;47.400;8.062;2023-12-04T14:54:31;2.80;98.50
8711;DHT22;4392;47.400;8.062;2023-12-04T14:57:17;2.90;98.70
8711;DHT22;4392;47.400;8.062;2023-12-04T15:00:02;2.80;98.80
8711;DHT22;4392;47.400;8.062;2023-12-04T15:02:47;2.80;99.00
8711;DHT22;4392;47.400;8.062;2023-12-04T15:05:31;2.60;99.90
8711;DHT22;4392;47.400;8.062;2023-12-04T15:07:56;2.80;99.90
8711;DHT22;4392;47.400;8.062;2023-12-04T15:10:37;2.90;99.90
8711;DHT22;4392;47.400;8.062;2023-12-04T15:13:24;2.90;99.90
8711;DHT22;4392;47.400;8.062;2023-12-04T15:16:05;2.90;99.90
8711;DHT22;4392;47.400;8.062;2023-12-04T15:18:50;2.80;99.90
8711;DHT22;4392;47.400;8.062;2023-12-04T15:21:22;2.80;99.90
8711;DHT22;4392;47.400;8.062;2023-12-04T15:23:48;2.80;99.90
8711;DHT22;4392;47.400;8.062;2023-12-04T15:26:15;2.70;99.90
8711;DHT22;4392;47.400;8.062;2023-12-04T15:28:41;2.70;99.90
8711;DHT22;4392;47.400;8.062;2023-12-04T15:31:07;2.70;99.90
8711;DHT22;4392;47.400;8.062;2023-12-04T15:33:32;2.80;99.90
8711;DHT22;4392;47.400;8.062;2023-12-04T15:35:58;2.70;99.90
8711;DHT22;4392;47.400;8.062;2023-12-04T15:38:24;2.70;99.90
8711;DHT22;4392;47.400;8.062;2023-12-04T15:40:49;2.70;99.90
8711;DHT22;4392;47.400;8.062;2023-12-04T15:43:18;2.70;99.90
8711;DHT22;4392;47.400;8.062;2023-12-04T15:45:43;2.70;99.90
8711;DHT22;4392;47.400;8.062;2023-12-04T15:48:09;2.70;99.90
8711;DHT22;4392;47.400;8.062;2023-12-04T15:50:38;2.60;99.90
8711;DHT22;4392;47.400;8.062;2023-12-04T15:53:03;2.60;99.90
8711;DHT22;4392;47.400;8.062;2023-12-04T15:55:29;2.70;99.90
8711;DHT22;4392;47.400;8.062;2023-12-04T15:57:56;2.80;99.90
8711;DHT22;4392;47.400;8.062;2023-12-04T16:00:23;2.80;99.90
8711;DHT22;4392;47.400;8.062;2023-12-04T16:02:49;2.90;99.90
8711;DHT22;4392;47.400;8.062;2023-12-04T16:05:15;2.80;99.90
8711;DHT22;4392;47.400;8.062;2023-12-04T16:07:40;2.70;99.90
8711;DHT22;4392;47.400;8.062;2023-12-04T16:10:08;2.70;99.90
8711;DHT22;4392;47.400;8.062;2023-12-04T16:12:34;2.70;99.90
8711;DHT22;4392;47.400;8.062;2023-12-04T16:15:04;2.60;99.90
8711;DHT22;4392;47.400;8.062;2023-12-04T16:17:30;2.60;99.90
8711;DHT22;4392;47.400;8.062;2023-12-04T16:19:59;2.60;99.90
8711;DHT22;4392;47.400;8.062;2023-12-04T16:22:28;2.60;99.90
8711;DHT22;4392;47.400;8.062;2023-12-04T16:24:54;2.60;99.90
8711;DHT22;4392;47.400;8.062;2023-12-04T16:27:20;2.60;99.90
8711;DHT22;4392;47.400;8.062;2023-12-04T16:29:46;2.60;99.90
8711;DHT22;4392;47.400;8.062;2023-12-04T16:32:11;2.60;99.90
8711;DHT22;4392;47.400;8.062;2023-12-04T16:34:37;2.60;99.90
8711;DHT22;4392;47.400;8.062;2023-12-04T16:37:05;2.60;99.90
8711;DHT22;4392;47.400;8.062;2023-12-04T16:39:31;2.60;99.90
8711;DHT22;4392;47.400;8.062;2023-12-04T16:41:56;2.60;99.90
8711;DHT22;4392;47.400;8.062;2023-12-04T16:44:22;2.70;99.90
8711;DHT22;4392;47.400;8.062;2023-12-04T16:46:49;2.60;99.90
8711;DHT22;4392;47.400;8.062;2023-12-04T16:49:24;2.60;99.90
8711;DHT22;4392;47.400;8.062;2023-12-04T16:51:50;2.60;99.90
8711;DHT22;4392;47.400;8.062;2023-12-04T16:54:17;2.60;99.90
8711;DHT22;4392;47.400;8.062;2023-12-04T16:56:42;2.70;99.90
8711;DHT22;4392;47.400;8.062;2023-12-04T16:59:08;2.60;99.90
8711;DHT22;4392;47.400;8.062;2023-12-04T17:01:34;2.60;99.90
8711;DHT22;4392;47.400;8.062;2023-12-04T17:04:00;2.60;99.90
8711;DHT22;4392;47.400;8.062;2023-12-04T17:06:26;2.70;99.90
8711;DHT22;4392;47.400;8.062;2023-12-04T17:08:53;2.70;99.90
8711;DHT22;4392;47.400;8.062;2023-12-04T17:11:19;2.70;99.90
8711;DHT22;4392;47.400;8.062;2023-12-04T17:13:45;2.60;99.90
8711;DHT22;4392;47.400;8.062;2023-12-04T17:16:10;2.60;99.90
8711;DHT22;4392;47.400;8.062;2023-12-04T17:18:36;2.60;99.90
8711;DHT22;4392;47.400;8.062;2023-12-04T17:21:02;2.70;99.90
8711;DHT22;4392;47.400;8.062;2023-12-04T17:23:30;2.70;99.90
8711;DHT22;4392;47.400;8.062;2023-12-04T17:25:56;2.70;99.90
8711;DHT22;4392;47.400;8.062;2023-12-04T17:28:22;2.60;99.90
8711;DHT22;4392;47.400;8.062;2023-12-04T17:30:48;2.60;99.90
8711;DHT22;4392;47.400;8.062;2023-12-04T17:33:13;2.60;99.90
8711;DHT22;4392;47.400;8.062;2023-12-04T17:35:39;2.60;99.90
8711;DHT22;4392;47.400;8.062;2023-12-04T17:38:06;2.50;99.90
8711;DHT22;4392;47.400;8.062;2023-12-04T17:40:31;2.50;99.90
8711;DHT22;4392;47.400;8.062;2023-12-04T17:42:57;2.50;99.90
8711;DHT22;4392;47.400;8.062;2023-12-04T17:45:23;2.50;99.90
8711;DHT22;4392;47.400;8.062;2023-12-04T17:47:49;2.50;99.90
8711;DHT22;4392;47.400;8.062;2023-12-04T17:50:15;2.50;99.90
8711;DHT22;4392;47.400;8.062;2023-12-04T17:52:40;2.50;99.90
8711;DHT22;4392;47.400;8.062;2023-12-04T17:55:07;2.50;99.90
8711;DHT22;4392;47.400;8.062;2023-12-04T17:57:33;2.50;99.90
8711;DHT22;4392;47.400;8.062;2023-12-04T17:59:59;2.50;99.90